Time;durP1;ratioP1;P1;durP2;ratioP2;P2;SDS_P1;SDS_P2;PMS_P1;PMS_P2;Temp;Humidity;BMP_temperature;BMP_pressure;BME280_temperature;BME280_humidity;BME280_pressure;Samples;Min_cycle;Max_cycle;Signal;HPM_P1;HPM_P2
2021/12/21 00:01:04;;;;;;;10.43;4.60;;;;;;;1.53;85.02;98922.81;4949535;28;20633;-84
2021/12/21 00:03:32;;;;;;;9.83;4.30;;;;;;;1.58;85.17;98918.41;4951579;28;21246;-84
2021/12/21 00:06:01;;;;;;;10.80;3.60;;;;;;;1.58;85.04;98917.53;4953015;28;20667;-84
2021/12/21 00:08:30;;;;;;;7.07;3.93;;;;;;;1.59;85.01;98909.78;4969581;28;20664;-84
2021/12/21 00:11:14;;;;;;;5.90;3.90;;;;;;;1.56;84.83;98909.84;4966951;28;20663;-83
2021/12/21 00:13:59;;;;;;;7.10;3.67;;;;;;;1.57;84.69;98913.28;4953216;28;20632;-83
2021/12/21 00:16:45;;;;;;;8.00;4.40;;;;;;;1.56;85.01;98914.16;4941240;28;20703;-84
2021/12/21 00:19:37;;;;;;;7.17;3.90;;;;;;;1.58;84.00;98913.28;4937012;28;20999;-84
2021/12/21 00:22:13;;;;;;;8.23;3.57;;;;;;;1.57;84.23;98905.59;4965942;28;21258;-84
2021/12/21 00:24:47;;;;;;;12.27;3.73;;;;;;;1.59;84.40;98904.66;4952748;28;20723;-83
2021/12/21 00:27:16;;;;;;;7.10;3.57;;;;;;;1.62;85.20;98908.91;4963710;28;20675;-83
2021/12/21 00:29:44;;;;;;;10.80;4.47;;;;;;;1.63;84.47;98905.47;4966370;28;20640;-83
2021/12/21 00:32:12;;;;;;;14.67;4.13;;;;;;;1.63;84.95;98893.44;4966856;28;20643;-84
2021/12/21 00:34:41;;;;;;;8.40;3.40;;;;;;;1.63;84.27;98901.16;4967960;28;20660;-84
2021/12/21 00:37:09;;;;;;;11.03;3.80;;;;;;;1.63;84.35;98903.72;4950496;28;20640;-83
2021/12/21 00:39:37;;;;;;;11.93;3.93;;;;;;;1.67;84.47;98897.66;4970172;28;21227;-84
2021/12/21 00:42:08;;;;;;;12.63;4.20;;;;;;;1.70;84.28;98902.75;4944975;28;20644;-83
2021/12/21 00:44:36;;;;;;;8.40;3.30;;;;;;;1.68;84.06;98895.94;4966931;28;21128;-83
2021/12/21 00:47:04;;;;;;;8.90;3.70;;;;;;;1.68;84.12;98894.19;4968017;28;21192;-83
2021/12/21 00:49:33;;;;;;;10.33;4.20;;;;;;;1.70;84.33;98887.31;4966949;28;20648;-84
2021/12/21 00:52:01;;;;;;;9.50;3.80;;;;;;;1.72;84.28;98887.28;4936030;28;20644;-83
2021/12/21 00:54:29;;;;;;;5.30;3.50;;;;;;;1.74;84.39;98883.78;4965369;28;21192;-84
2021/12/21 00:57:00;;;;;;;8.67;3.90;;;;;;;1.74;83.67;98878.66;4966565;28;21763;-84
2021/12/21 00:59:29;;;;;;;7.00;3.40;;;;;;;1.67;84.15;98882.25;4949884;28;20651;-83
2021/12/21 01:01:58;;;;;;;13.77;4.53;;;;;;;1.66;84.31;98875.41;4964996;28;20632;-84
2021/12/21 01:04:34;;;;;;;12.53;4.30;;;;;;;1.63;83.74;98875.47;4935110;28;20676;-84
2021/12/21 01:07:08;;;;;;;6.90;3.80;;;;;;;1.63;84.41;98877.19;4966413;28;20674;-83
2021/12/21 01:12:32;;;;;;;9.20;4.50;;;;;;;1.57;84.27;98873.03;4948187;28;20668;-83
2021/12/21 01:15:12;;;;;;;7.90;3.53;;;;;;;1.55;84.09;98872.22;4951639;28;21252;-83
2021/12/21 01:17:51;;;;;;;11.30;4.43;;;;;;;1.49;84.11;98882.63;4948620;28;20641;-83
2021/12/21 01:20:34;;;;;;;12.90;5.20;;;;;;;1.51;84.05;98873.16;4968220;28;20726;-84
2021/12/21 01:25:57;;;;;;;6.50;4.30;;;;;;;1.46;84.12;98874.13;4968668;28;20639;-83
2021/12/21 01:28:34;;;;;;;8.83;4.00;;;;;;;1.39;84.26;98875.13;4965040;28;20653;-84
2021/12/21 01:31:18;;;;;;;10.37;4.20;;;;;;;1.35;84.20;98870.91;4931128;28;21059;-83
2021/12/21 01:33:58;;;;;;;10.80;4.40;;;;;;;1.36;84.63;98875.19;4961484;28;20641;-83
2021/12/21 01:36:36;;;;;;;10.03;4.30;;;;;;;1.36;84.61;98874.34;4965707;28;20633;-84
2021/12/21 01:39:12;;;;;;;10.03;4.00;;;;;;;1.34;84.47;98866.66;4963489;28;20640;-83
2021/12/21 01:41:48;;;;;;;7.97;4.60;;;;;;;1.33;84.24;98862.41;4968897;28;20627;-84
2021/12/21 01:44:31;;;;;;;8.20;3.90;;;;;;;1.30;84.79;98864.19;4960913;28;20652;-83
2021/12/21 01:49:50;;;;;;;8.40;4.40;;;;;;;1.21;84.91;98869.50;4964061;28;20660;-84
2021/12/21 01:52:20;;;;;;;9.50;3.57;;;;;;;1.23;85.20;98868.56;4945774;28;21298;-83
2021/12/21 01:54:49;;;;;;;6.47;3.80;;;;;;;1.22;84.77;98873.75;4938202;28;20644;-83
2021/12/21 01:57:17;;;;;;;10.50;4.20;;;;;;;1.25;85.15;98871.13;4951646;28;20651;-84
2021/12/21 01:59:47;;;;;;;8.63;4.20;;;;;;;1.23;84.92;98862.59;4969932;28;21154;-83
2021/12/21 02:02:19;;;;;;;7.33;3.57;;;;;;;1.25;85.06;98859.16;4950449;28;20648;-84
2021/12/21 02:04:47;;;;;;;7.67;4.10;;;;;;;1.27;84.35;98859.94;4966631;28;20625;-83
2021/12/21 02:07:16;;;;;;;15.97;4.70;;;;;;;1.25;84.41;98856.56;4949011;28;20652;-83
2021/12/21 02:09:44;;;;;;;14.63;4.90;;;;;;;1.20;84.82;98857.53;4936203;28;21228;-83
2021/12/21 02:12:13;;;;;;;12.43;5.27;;;;;;;1.16;84.40;98856.75;4966372;28;20691;-83
2021/12/21 02:14:43;;;;;;;9.47;4.70;;;;;;;1.14;84.71;98861.09;4949108;28;20643;-83
2021/12/21 02:17:35;;;;;;;8.83;4.40;;;;;;;1.13;84.33;98855.97;4962200;28;20693;-83
2021/12/21 02:20:18;;;;;;;14.73;5.00;;;;;;;1.00;84.73;98865.59;4950730;28;21000;-83
2021/12/21 02:22:51;;;;;;;9.40;4.83;;;;;;;0.93;85.18;98854.66;4967058;28;20678;-83
2021/12/21 02:25:38;;;;;;;9.27;4.70;;;;;;;0.87;85.50;98859.88;4967218;28;20642;-84
2021/12/21 02:28:33;;;;;;;9.70;5.13;;;;;;;0.88;85.74;98853.88;4963173;28;20638;-83
2021/12/21 02:31:01;;;;;;;10.63;5.43;;;;;;;0.84;85.22;98854.81;4945793;28;20653;-83
2021/12/21 02:33:29;;;;;;;9.53;5.57;;;;;;;0.78;85.82;98849.78;4951401;28;20659;-83
2021/12/21 02:35:59;;;;;;;9.90;4.83;;;;;;;0.81;86.26;98848.00;4964717;28;20646;-83
2021/12/21 02:38:28;;;;;;;9.97;4.80;;;;;;;0.81;85.82;98849.72;4969405;28;20651;-83
2021/12/21 02:40:56;;;;;;;9.13;4.60;;;;;;;0.79;86.11;98851.50;4948580;28;20836;-83
2021/12/21 02:43:28;;;;;;;15.37;5.47;;;;;;;0.75;86.06;98857.53;4968133;28;20640;-83
2021/12/21 02:45:56;;;;;;;9.80;4.77;;;;;;;0.74;86.44;98855.88;4968279;28;20635;-83
2021/12/21 02:48:25;;;;;;;10.43;4.63;;;;;;;0.71;86.22;98856.75;4964752;28;20660;-83
2021/12/21 02:50:53;;;;;;;15.90;5.07;;;;;;;0.69;86.31;98855.09;4966552;28;20629;-83
2021/12/21 02:53:22;;;;;;;11.63;4.50;;;;;;;0.78;86.27;98847.22;4964424;28;20643;-83
2021/12/21 02:55:50;;;;;;;9.83;4.80;;;;;;;0.74;86.01;98853.31;4963472;28;20653;-82
2021/12/21 02:58:18;;;;;;;11.63;4.63;;;;;;;0.76;86.09;98847.25;4966772;28;20636;-84
2021/12/21 03:00:47;;;;;;;10.43;5.20;;;;;;;0.77;86.41;98851.53;4968481;28;20252;-83
2021/12/21 03:03:16;;;;;;;8.80;4.80;;;;;;;0.77;86.44;98843.81;4967648;28;21211;-83
2021/12/21 03:05:49;;;;;;;10.60;4.83;;;;;;;0.83;86.40;98851.41;4963582;28;21397;-83
2021/12/21 03:08:20;;;;;;;8.30;4.60;;;;;;;0.85;85.81;98843.69;4967753;28;20985;-83
2021/12/21 03:11:04;;;;;;;9.50;4.77;;;;;;;0.85;85.83;98852.22;4952176;28;20652;-83
2021/12/21 03:16:35;;;;;;;6.73;4.33;;;;;;;0.94;86.12;98846.91;4896985;29;21242;-83
2021/12/21 03:19:03;;;;;;;9.20;4.90;;;;;;;0.93;85.56;98845.22;4895345;29;20635;-83
2021/12/21 03:21:34;;;;;;;12.40;4.80;;;;;;;0.93;85.13;98852.06;4905062;28;20645;-83
2021/12/21 03:24:03;;;;;;;6.37;4.77;;;;;;;0.90;85.31;98852.97;4966426;28;20628;-83
2021/12/21 03:26:32;;;;;;;9.70;4.87;;;;;;;0.88;85.60;98848.75;4963186;28;20633;-83
2021/12/21 03:29:02;;;;;;;8.97;5.20;;;;;;;0.84;85.02;98849.69;4950785;28;20664;-83
2021/12/21 03:31:31;;;;;;;9.90;4.93;;;;;;;0.84;85.59;98847.09;4951273;28;20724;-83
2021/12/21 03:34:01;;;;;;;12.60;4.80;;;;;;;0.79;85.58;98844.63;4965109;28;20581;-83
2021/12/21 03:36:32;;;;;;;9.03;4.80;;;;;;;0.79;85.19;98852.31;4950007;28;20671;-83
2021/12/21 03:39:05;;;;;;;10.20;5.30;;;;;;;0.69;85.32;98853.38;4949064;28;20998;-83
2021/12/21 03:41:40;;;;;;;8.43;5.20;;;;;;;0.68;85.67;98850.84;4970352;28;21188;-84
2021/12/21 03:44:09;;;;;;;9.97;5.33;;;;;;;0.66;85.53;98845.75;4966002;28;20629;-83
2021/12/21 03:46:45;;;;;;;9.90;5.00;;;;;;;0.66;85.92;98839.75;4942280;28;20654;-83
2021/12/21 03:49:48;;;;;;;10.13;4.83;;;;;;;0.63;85.27;98845.78;4948917;28;21191;-83
2021/12/21 03:52:10;;;;;;;7.67;5.20;;;;;;;0.64;85.86;98847.47;4964012;28;21251;-83
2021/12/21 03:54:41;;;;;;;10.90;5.40;;;;;;;0.65;85.47;98845.75;4960473;28;21181;-83
2021/12/21 03:57:13;;;;;;;13.03;5.67;;;;;;;0.65;85.63;98844.03;4962222;28;20644;-83
2021/12/21 03:59:42;;;;;;;6.70;4.47;;;;;;;0.67;85.24;98844.00;4949251;28;21069;-83
2021/12/21 04:02:12;;;;;;;12.77;5.20;;;;;;;0.60;85.30;98839.84;4961596;28;20641;-83
2021/12/21 04:04:41;;;;;;;6.47;4.50;;;;;;;0.53;85.04;98838.28;4964546;28;20652;-83
2021/12/21 04:07:09;;;;;;;9.70;4.90;;;;;;;0.52;85.50;98842.53;4948287;28;20658;-83
2021/12/21 04:09:40;;;;;;;16.23;5.90;;;;;;;0.55;85.23;98845.06;4962128;28;20652;-83
2021/12/21 04:12:11;;;;;;;9.60;5.60;;;;;;;0.54;85.50;98842.50;4958496;28;21087;-83
2021/12/21 04:14:42;;;;;;;11.43;6.47;;;;;;;0.48;85.33;98840.91;4947765;28;20648;-84
2021/12/21 04:17:17;;;;;;;11.57;5.13;;;;;;;0.43;85.35;98833.34;4960964;28;20214;-83
2021/12/21 04:19:45;;;;;;;11.03;5.83;;;;;;;0.42;85.22;98847.00;4946343;28;20691;-83
2021/12/21 04:22:13;;;;;;;8.77;5.00;;;;;;;0.50;85.22;98841.72;4950349;28;20984;-84
2021/12/21 04:24:46;;;;;;;11.93;5.40;;;;;;;0.43;85.01;98852.13;4966939;28;20640;-83
2021/12/21 04:27:17;;;;;;;11.98;5.47;;;;;;;0.38;85.46;98842.81;4965416;28;20848;-83
2021/12/21 04:29:46;;;;;;;9.00;5.10;;;;;;;0.36;85.62;98841.97;4967325;28;20221;-83
2021/12/21 04:32:14;;;;;;;8.70;5.20;;;;;;;0.28;86.25;98848.97;4946789;28;21220;-83
2021/12/21 04:34:42;;;;;;;10.70;5.77;;;;;;;0.32;85.97;98850.63;4966042;28;20676;-82
2021/12/21 04:37:12;;;;;;;9.50;5.87;;;;;;;0.30;85.62;98849.78;4963007;28;21168;-83
2021/12/21 04:39:45;;;;;;;9.73;5.20;;;;;;;0.30;85.87;98844.66;4966832;28;21059;-82
2021/12/21 04:42:14;;;;;;;12.70;5.67;;;;;;;0.34;86.06;98848.88;4965124;28;20634;-82
2021/12/21 04:44:43;;;;;;;9.80;5.78;;;;;;;0.34;85.72;98857.41;4964354;28;20634;-82
2021/12/21 04:47:11;;;;;;;10.40;5.90;;;;;;;0.38;86.11;98851.34;4945883;28;20199;-82
2021/12/21 04:49:39;;;;;;;13.38;5.80;;;;;;;0.40;85.51;98848.78;4933571;28;20650;-82
2021/12/21 04:52:08;;;;;;;11.23;6.70;;;;;;;0.38;85.61;98847.97;4931628;28;20213;-82
2021/12/21 04:54:37;;;;;;;10.40;6.10;;;;;;;0.34;85.29;98851.44;4962569;28;20587;-82
2021/12/21 04:57:05;;;;;;;10.37;6.03;;;;;;;0.31;85.28;98844.63;4970168;28;20640;-83
2021/12/21 04:59:33;;;;;;;9.00;6.07;;;;;;;0.36;85.51;98839.41;4949621;28;20645;-82
2021/12/21 05:02:03;;;;;;;7.57;5.20;;;;;;;0.36;85.99;98839.41;4929516;28;20292;-82
2021/12/21 05:04:31;;;;;;;14.50;6.10;;;;;;;0.37;85.40;98841.13;4966687;28;20742;-82
2021/12/21 05:06:59;;;;;;;11.75;5.93;;;;;;;0.38;85.13;98835.13;4961013;28;20675;-82
2021/12/21 05:09:36;;;;;;;16.57;6.10;;;;;;;0.37;85.54;98836.00;4966879;28;20735;-82
2021/12/21 05:12:07;;;;;;;12.33;5.97;;;;;;;0.36;84.77;98827.47;4953357;28;21088;-82
2021/12/21 05:14:35;;;;;;;10.53;5.70;;;;;;;0.35;84.94;98827.50;4967346;28;20771;-82
2021/12/21 05:17:05;;;;;;;10.70;6.07;;;;;;;0.30;84.94;98827.56;4964183;28;20624;-82
2021/12/21 05:19:34;;;;;;;12.23;6.23;;;;;;;0.30;85.15;98830.13;4965706;28;20205;-83
2021/12/21 05:22:02;;;;;;;8.60;5.90;;;;;;;0.31;85.34;98825.84;4965532;28;20664;-83
2021/12/21 05:24:30;;;;;;;10.10;6.40;;;;;;;0.32;85.10;98830.94;4945067;28;21205;-82
2021/12/21 05:26:58;;;;;;;15.33;7.40;;;;;;;0.35;84.54;98830.06;4929559;28;21311;-82
2021/12/21 05:29:27;;;;;;;12.40;7.40;;;;;;;0.36;84.72;98829.16;4951225;28;20648;-83
2021/12/21 05:31:58;;;;;;;11.20;6.77;;;;;;;0.33;84.51;98826.66;4948674;28;20747;-83
2021/12/21 05:34:28;;;;;;;10.07;6.00;;;;;;;0.31;84.36;98829.25;4952568;28;21025;-83
2021/12/21 05:36:57;;;;;;;12.90;6.70;;;;;;;0.26;84.90;98832.78;4954556;28;20640;-82
2021/12/21 05:39:36;;;;;;;9.03;6.33;;;;;;;0.24;84.67;98825.09;4937067;28;20651;-83
2021/12/21 05:42:06;;;;;;;12.30;6.20;;;;;;;0.24;83.74;98834.50;4965055;28;20630;-83
2021/12/21 05:44:34;;;;;;;9.20;5.73;;;;;;;0.19;83.70;98826.03;4950055;28;21215;-82
2021/12/21 05:47:02;;;;;;;9.40;5.97;;;;;;;0.14;83.88;98820.97;4950192;28;20642;-82
2021/12/21 05:49:33;;;;;;;12.83;5.90;;;;;;;0.16;84.27;98824.34;4964792;28;20641;-82
2021/12/21 05:52:02;;;;;;;13.77;7.20;;;;;;;0.18;84.40;98824.34;4948097;28;20663;-82
2021/12/21 05:54:30;;;;;;;14.60;6.00;;;;;;;0.19;84.82;98824.31;4951626;28;20628;-82
2021/12/21 05:57:02;;;;;;;12.23;6.23;;;;;;;0.21;84.39;98816.59;4946688;28;20664;-83
2021/12/21 05:59:30;;;;;;;9.87;6.03;;;;;;;0.23;83.72;98818.28;4949328;28;21082;-82
2021/12/21 06:01:58;;;;;;;10.87;6.20;;;;;;;0.18;83.80;98821.78;4968699;28;21005;-83
2021/12/21 06:04:27;;;;;;;19.83;6.17;;;;;;;0.13;84.00;98826.13;4933078;28;20649;-82
2021/12/21 06:06:56;;;;;;;8.13;6.20;;;;;;;0.13;84.21;98828.69;4952111;28;20668;-83
2021/12/21 06:09:27;;;;;;;12.32;6.25;;;;;;;0.11;83.94;98826.16;4935305;28;21143;-85
2021/12/21 06:12:06;;;;;;;12.05;6.15;;;;;;;0.05;84.02;98820.28;4948999;28;20225;-85
2021/12/21 06:23:11;;;;;;;15.85;8.43;;;;;;;0.05;84.80;98821.13;4965692;28;20652;-85
2021/12/21 06:25:41;;;;;;;11.50;7.43;;;;;;;0.04;84.82;98813.47;4965988;28;20212;-85
2021/12/21 06:28:11;;;;;;;13.17;7.70;;;;;;;0.04;84.86;98816.03;4964420;28;20672;-84
2021/12/21 06:30:41;;;;;;;9.47;6.50;;;;;;;0.05;84.55;98820.28;4947841;28;20665;-85
2021/12/21 06:33:10;;;;;;;9.50;7.73;;;;;;;0.08;84.70;98820.25;4951070;28;20644;-85
2021/12/21 06:35:39;;;;;;;11.97;7.40;;;;;;;0.10;84.73;98823.63;4950535;28;20655;-86
2021/12/21 06:38:08;;;;;;;9.40;6.63;;;;;;;0.05;83.81;98822.84;4961837;28;20629;-85
2021/12/21 06:40:37;;;;;;;14.30;7.20;;;;;;;0.06;84.42;98816.84;4943840;28;20628;-86
2021/12/21 06:43:11;;;;;;;12.48;8.05;;;;;;;0.06;84.38;98821.97;4945546;28;21224;-85
2021/12/21 06:45:47;;;;;;;14.80;7.27;;;;;;;0.08;84.38;98817.69;4949189;28;20840;-85
2021/12/21 06:51:20;;;;;;;15.17;7.60;;;;;;;0.08;84.07;98817.69;4947678;28;20760;-85
2021/12/21 06:53:51;;;;;;;11.63;6.88;;;;;;;0.08;84.14;98817.69;4948031;28;20649;-86
2021/12/21 06:56:25;;;;;;;12.37;8.27;;;;;;;0.07;83.52;98818.53;4966073;28;20591;-84
2021/12/21 06:58:56;;;;;;;14.47;8.70;;;;;;;0.05;84.10;98820.28;4943809;28;20646;-84
2021/12/21 07:01:28;;;;;;;15.73;9.60;;;;;;;0.04;83.97;98810.91;4949961;28;20648;-86
2021/12/21 07:03:57;;;;;;;16.50;7.60;;;;;;;-0.05;84.08;98823.84;4968050;28;20707;-84
2021/12/21 07:06:28;;;;;;;14.43;7.40;;;;;;;-0.10;84.16;98825.66;4961903;28;20668;-84
2021/12/21 07:09:02;;;;;;;9.98;6.72;;;;;;;-0.13;83.89;98819.72;4961326;28;20670;-84
2021/12/21 07:11:40;;;;;;;20.45;8.82;;;;;;;-0.16;84.19;98825.72;4964726;28;20715;-83
2021/12/21 07:19:43;;;;;;;12.33;7.10;;;;;;;-0.37;84.42;98833.72;4963622;28;20222;-84
2021/12/21 07:22:11;;;;;;;12.18;7.05;;;;;;;-0.38;84.38;98829.47;4956237;28;20644;-84
2021/12/21 07:24:41;;;;;;;15.55;8.82;;;;;;;-0.39;84.28;98827.78;4945403;28;20259;-86
2021/12/21 07:27:09;;;;;;;19.30;11.35;;;;;;;-0.40;84.70;98825.25;4930224;28;20208;-84
2021/12/21 07:29:37;;;;;;;15.05;8.75;;;;;;;-0.36;84.51;98832.00;4962139;28;20200;-85
2021/12/21 07:32:06;;;;;;;15.20;8.85;;;;;;;-0.32;84.72;98831.94;4963681;28;20228;-87
2021/12/21 07:34:34;;;;;;;14.68;8.43;;;;;;;-0.32;84.38;98834.50;4948732;28;20208;-86
2021/12/21 07:37:05;;;;;;;15.00;9.30;;;;;;;-0.29;83.79;98828.50;4952112;28;20352;-86
2021/12/21 07:39:33;;;;;;;20.17;10.80;;;;;;;-0.31;84.16;98836.19;4954325;28;20660;-88
2021/12/21 07:42:18;;;;;;;21.03;11.80;;;;;;;-0.30;84.20;98839.59;4938329;28;20640;-88
2021/12/21 07:44:46;;;;;;;16.33;9.23;;;;;;;-0.26;84.18;98841.25;4969437;28;21247;-88
2021/12/21 07:47:15;;;;;;;17.42;8.18;;;;;;;-0.15;84.33;98847.94;4949602;28;20217;-88
2021/12/21 07:49:45;;;;;;;14.70;7.90;;;;;;;-0.09;84.29;98846.97;4966552;28;20627;-84
2021/12/21 07:52:14;;;;;;;19.40;9.05;;;;;;;-0.01;84.40;98840.88;4971875;28;20701;-89
2021/12/21 07:54:46;;;;;;;14.35;8.85;;;;;;;0.16;83.71;98844.88;4970776;28;20224;-88
2021/12/21 07:57:14;;;;;;;16.87;9.47;;;;;;;0.32;83.41;98841.19;4952274;28;20694;-89
2021/12/21 07:59:44;;;;;;;15.85;8.85;;;;;;;0.52;83.61;98845.09;4935480;28;20676;-88
2021/12/21 08:02:13;;;;;;;15.03;8.93;;;;;;;0.79;83.15;98849.75;4964564;28;20218;-89
2021/12/21 08:04:45;;;;;;;16.50;8.53;;;;;;;0.99;81.99;98850.22;4961315;28;20621;-87
2021/12/21 08:07:17;;;;;;;13.27;7.32;;;;;;;1.19;81.28;98859.25;4949111;28;20759;-84
2021/12/21 08:09:48;;;;;;;8.47;5.67;;;;;;;1.35;80.45;98858.06;4963947;28;20205;-85
2021/12/21 08:12:17;;;;;;;12.07;7.83;;;;;;;1.53;80.60;98861.13;4965786;28;20850;-86
2021/12/21 08:14:49;;;;;;;17.10;8.20;;;;;;;1.72;81.17;98853.88;4958827;28;20645;-88
2021/12/21 08:17:22;;;;;;;24.53;14.63;;;;;;;1.81;79.94;98864.78;4967567;28;21197;-87
2021/12/21 08:19:51;;;;;;;18.90;11.10;;;;;;;1.85;79.23;98861.28;4966996;28;20992;-85
2021/12/21 08:22:19;;;;;;;17.40;10.07;;;;;;;1.92;79.15;98867.97;4948296;28;20644;-85
2021/12/21 08:24:47;;;;;;;15.37;8.20;;;;;;;1.95;78.70;98858.44;4949031;28;20652;-85
2021/12/21 08:27:15;;;;;;;11.37;7.90;;;;;;;2.05;78.93;98869.41;4949623;28;20640;-84
2021/12/21 08:29:44;;;;;;;12.73;7.70;;;;;;;2.13;79.41;98868.31;4931338;28;21283;-86
2021/12/21 08:32:16;;;;;;;11.77;7.57;;;;;;;2.24;78.65;98870.66;4952013;28;20708;-85
2021/12/21 08:34:44;;;;;;;10.80;7.27;;;;;;;2.31;78.52;98865.34;4953286;28;20636;-86
2021/12/21 08:37:12;;;;;;;10.37;5.87;;;;;;;2.40;78.06;98865.94;4951289;28;20636;-84
2021/12/21 08:39:41;;;;;;;10.70;6.20;;;;;;;2.45;76.75;98866.72;4936878;28;20734;-87
2021/12/21 08:42:13;;;;;;;14.57;8.73;;;;;;;2.56;76.84;98869.03;4952306;28;20632;-88
2021/12/21 08:44:45;;;;;;;12.73;8.07;;;;;;;2.58;77.17;98873.22;4951731;28;20629;-92
2021/12/21 08:47:17;;;;;;;11.27;6.80;;;;;;;2.61;77.97;98877.47;4965362;28;20641;-87
2021/12/21 08:49:49;;;;;;;10.40;7.23;;;;;;;2.65;77.26;98876.53;4963504;28;20642;-87
2021/12/21 08:52:17;;;;;;;11.10;6.57;;;;;;;2.79;77.18;98874.44;4971093;28;20663;-84
2021/12/21 08:54:46;;;;;;;10.03;6.40;;;;;;;2.87;77.05;98869.06;4971066;28;20636;-84
2021/12/21 08:57:14;;;;;;;8.60;5.57;;;;;;;2.94;76.51;98862.00;4934419;28;20691;-84
2021/12/21 08:59:42;;;;;;;7.67;5.60;;;;;;;2.97;76.84;98862.75;4928832;28;20629;-83
2021/12/21 09:02:11;;;;;;;8.40;5.27;;;;;;;2.96;76.24;98866.25;4969189;28;20984;-84
2021/12/21 09:04:40;;;;;;;5.67;4.57;;;;;;;3.00;76.48;98867.00;4968359;28;20739;-85
2021/12/21 09:07:09;;;;;;;8.00;5.13;;;;;;;3.06;76.75;98864.25;4951172;28;20701;-84
2021/12/21 09:09:37;;;;;;;6.93;4.93;;;;;;;3.10;76.51;98864.16;4968135;28;20643;-84
2021/12/21 09:12:06;;;;;;;8.70;5.03;;;;;;;3.17;76.81;98850.19;4950913;28;20673;-84
2021/12/21 09:14:34;;;;;;;8.00;4.93;;;;;;;3.19;76.46;98855.31;4953131;28;20801;-84
2021/12/21 09:17:03;;;;;;;7.43;5.03;;;;;;;3.21;76.05;98853.56;4959034;28;20643;-85
2021/12/21 09:19:31;;;;;;;7.20;4.97;;;;;;;3.28;75.53;98851.59;4955477;28;20636;-84
2021/12/21 09:22:02;;;;;;;10.87;5.57;;;;;;;3.44;76.28;98850.31;4972716;28;20635;-84
2021/12/21 09:24:31;;;;;;;6.77;4.83;;;;;;;3.58;75.63;98848.16;4971153;28;20641;-84
2021/12/21 09:26:59;;;;;;;7.93;5.70;;;;;;;3.66;75.54;98846.19;4953893;28;20648;-84
2021/12/21 09:29:27;;;;;;;8.37;5.13;;;;;;;3.73;75.94;98852.88;4971559;28;20618;-84
2021/12/21 09:31:56;;;;;;;6.90;4.50;;;;;;;3.74;74.98;98847.69;4970153;28;20727;-84
2021/12/21 09:34:24;;;;;;;5.77;4.07;;;;;;;3.77;73.66;98845.00;4955752;28;20633;-84
2021/12/21 09:36:53;;;;;;;7.80;3.87;;;;;;;3.80;75.88;98849.22;4970107;28;20674;-83
2021/12/21 09:39:23;;;;;;;5.60;3.90;;;;;;;3.87;73.76;98855.88;4968847;28;20644;-84
2021/12/21 09:41:51;;;;;;;5.17;3.87;;;;;;;3.93;74.16;98850.56;4953153;28;20646;-84
2021/12/21 09:44:19;;;;;;;7.50;4.50;;;;;;;4.05;73.13;98845.84;4939903;28;20651;-84
2021/12/21 09:46:47;;;;;;;7.17;4.73;;;;;;;4.06;73.41;98842.41;4954273;28;20663;-83
2021/12/21 09:49:16;;;;;;;6.07;4.20;;;;;;;4.11;73.60;98842.25;4954708;28;20647;-84
2021/12/21 09:51:44;;;;;;;5.40;3.80;;;;;;;4.13;73.42;98843.03;4970459;28;20641;-84
2021/12/21 09:54:16;;;;;;;9.00;4.50;;;;;;;4.12;72.95;98847.38;4971849;28;20864;-84
2021/12/21 09:56:49;;;;;;;8.77;4.20;;;;;;;4.21;73.37;98842.75;4966269;28;20668;-84
2021/12/21 09:59:17;;;;;;;5.63;4.27;;;;;;;4.27;72.32;98844.31;4952626;28;20771;-83
2021/12/21 10:01:46;;;;;;;8.20;6.23;;;;;;;4.30;73.48;98842.47;4970705;28;20679;-84
2021/12/21 10:04:14;;;;;;;8.87;7.40;;;;;;;4.34;72.83;98845.78;4973733;28;20707;-84
2021/12/21 10:06:44;;;;;;;6.60;4.27;;;;;;;4.40;73.08;98843.84;4953445;28;20660;-84
2021/12/21 10:09:12;;;;;;;6.37;5.67;;;;;;;4.40;71.77;98849.00;4954840;28;20728;-84
2021/12/21 10:12:02;;;;;;;7.60;5.13;;;;;;;4.49;72.70;98847.88;4968000;28;21223;-84
2021/12/21 10:14:32;;;;;;;7.00;5.20;;;;;;;4.43;70.71;98848.06;4957692;28;20648;-84
2021/12/21 10:17:02;;;;;;;7.37;4.73;;;;;;;4.45;72.46;98847.16;4963037;28;20697;-84
2021/12/21 10:19:30;;;;;;;7.57;5.80;;;;;;;4.55;73.15;98852.84;4970753;28;20795;-84
2021/12/21 10:22:09;;;;;;;5.93;4.63;;;;;;;4.55;71.27;98837.34;4939269;28;20636;-84
2021/12/21 10:24:45;;;;;;;7.90;4.67;;;;;;;4.58;73.27;98843.25;4951686;28;20727;-85
2021/12/21 10:27:18;;;;;;;6.17;4.43;;;;;;;4.67;73.16;98832.63;4969387;28;20660;-85
2021/12/21 10:29:48;;;;;;;5.93;4.40;;;;;;;4.73;71.34;98827.25;4952113;28;20638;-85
2021/12/21 10:32:20;;;;;;;6.20;4.13;;;;;;;4.68;71.14;98834.31;4969091;28;20711;-85
2021/12/21 10:35:00;;;;;;;6.37;4.10;;;;;;;4.64;70.87;98829.31;4970305;28;21328;-84
2021/12/21 10:37:31;;;;;;;5.30;4.10;;;;;;;4.64;72.12;98827.56;4952086;28;21195;-84
2021/12/21 10:40:09;;;;;;;8.13;6.00;;;;;;;4.60;70.70;98825.13;4970713;28;21139;-84
2021/12/21 10:42:50;;;;;;;10.33;6.03;;;;;;;4.60;72.94;98826.00;4954841;28;20733;-84
2021/12/21 10:45:20;;;;;;;7.13;5.17;;;;;;;4.68;72.28;98822.22;4954423;28;20644;-85
2021/12/21 10:47:49;;;;;;;5.37;4.00;;;;;;;4.70;73.03;98820.44;4970129;28;20841;-85
2021/12/21 10:50:18;;;;;;;8.03;4.03;;;;;;;4.70;71.30;98817.84;4970990;28;20633;-85
2021/12/21 10:52:51;;;;;;;5.83;4.70;;;;;;;4.70;72.37;98811.84;4953209;28;21241;-84
2021/12/21 10:55:28;;;;;;;7.13;4.10;;;;;;;4.60;71.54;98812.22;4950104;28;20641;-88
2021/12/21 10:58:19;;;;;;;6.00;4.07;;;;;;;4.64;73.19;98801.72;4953589;28;20729;-84
2021/12/21 11:00:52;;;;;;;5.70;3.47;;;;;;;4.62;71.75;98811.28;4964276;28;21203;-83
2021/12/21 11:03:32;;;;;;;8.10;4.00;;;;;;;4.48;72.02;98804.88;4959240;28;20628;-83
2021/12/21 11:06:11;;;;;;;5.00;3.40;;;;;;;4.50;72.34;98800.53;4969505;28;20665;-83
2021/12/21 11:08:40;;;;;;;10.30;4.37;;;;;;;4.49;71.51;98798.81;4969647;28;20655;-83
2021/12/21 11:11:11;;;;;;;5.23;4.00;;;;;;;4.30;72.44;98793.41;4965181;28;20642;-83
2021/12/21 11:13:40;;;;;;;6.27;3.77;;;;;;;4.23;73.02;98788.50;4968328;28;20667;-82
2021/12/21 11:16:08;;;;;;;5.80;3.90;;;;;;;4.09;72.54;98785.53;4969938;28;20632;-83
2021/12/21 11:18:38;;;;;;;10.13;5.63;;;;;;;4.15;73.70;98772.44;4966774;28;20719;-85
2021/12/21 11:21:09;;;;;;;5.50;4.60;;;;;;;4.14;72.96;98780.22;4969575;28;20664;-85
2021/12/21 11:23:38;;;;;;;6.70;4.43;;;;;;;4.11;72.84;98777.75;4969097;28;21201;-85
2021/12/21 11:26:09;;;;;;;5.57;4.30;;;;;;;3.96;73.01;98770.47;4951263;28;21206;-87
2021/12/21 11:28:37;;;;;;;5.07;3.70;;;;;;;3.93;73.57;98776.56;4952746;28;20692;-88
2021/12/21 11:31:09;;;;;;;6.27;4.30;;;;;;;4.04;73.93;98777.06;4955212;28;20638;-85
2021/12/21 11:33:43;;;;;;;5.17;3.77;;;;;;;4.04;72.74;98771.06;4951839;28;20674;-85
2021/12/21 11:39:02;;;;;;;12.67;5.50;;;;;;;3.98;73.38;98769.53;4971602;28;20634;-87
2021/12/21 11:41:34;;;;;;;6.53;3.70;;;;;;;3.98;72.62;98766.09;4972948;28;21194;-88
2021/12/21 11:44:10;;;;;;;5.50;3.80;;;;;;;3.96;73.40;98762.75;4935696;28;20644;-88
2021/12/21 11:46:53;;;;;;;8.20;4.43;;;;;;;3.95;72.73;98767.03;4949135;28;21403;-89
2021/12/21 11:49:31;;;;;;;3.97;3.57;;;;;;;3.89;72.33;98763.81;4933788;28;21038;-86
2021/12/21 11:52:10;;;;;;;5.87;3.90;;;;;;;3.74;72.75;98757.41;4952078;28;20668;-85
2021/12/21 11:54:50;;;;;;;6.57;3.90;;;;;;;3.83;74.20;98761.44;4962563;28;20667;-89
2021/12/21 11:57:19;;;;;;;5.10;3.27;;;;;;;3.89;72.99;98758.66;4945578;28;21434;-88
2021/12/21 11:59:49;;;;;;;6.03;4.33;;;;;;;3.88;72.16;98754.41;4966022;28;20762;-88
2021/12/21 12:02:30;;;;;;;6.60;3.67;;;;;;;3.92;72.75;98756.81;4941271;28;20642;-88
2021/12/21 12:04:59;;;;;;;5.37;3.60;;;;;;;3.84;72.50;98756.22;4964995;28;20680;-87
2021/12/21 12:07:34;;;;;;;7.20;3.90;;;;;;;3.93;73.84;98757.69;4967842;28;20628;-87
2021/12/21 12:10:11;;;;;;;5.70;4.00;;;;;;;3.96;72.63;98748.09;4946784;28;20636;-87
2021/12/21 12:12:40;;;;;;;4.30;3.60;;;;;;;4.02;73.14;98753.06;4965011;28;20644;-87
2021/12/21 12:15:10;;;;;;;4.80;3.67;;;;;;;3.97;72.42;98752.38;4945896;28;20669;-87
2021/12/21 12:17:47;;;;;;;9.77;3.63;;;;;;;3.97;71.47;98748.94;4936233;28;21238;-87
2021/12/21 12:20:16;;;;;;;7.47;3.83;;;;;;;3.87;72.28;98750.13;4951516;28;20640;-87
2021/12/21 12:22:46;;;;;;;6.17;4.40;;;;;;;3.90;72.59;98747.47;4967613;28;20637;-87
2021/12/21 12:25:19;;;;;;;5.67;4.10;;;;;;;3.92;71.83;98748.25;4950959;28;20664;-87
2021/12/21 12:27:49;;;;;;;8.53;4.20;;;;;;;3.97;71.57;98749.78;4952324;28;20704;-87